createdAt,value
2023-05-15T00:01:00.154Z,101320.96
2023-05-15T00:03:27.681Z,101315.09
2023-05-15T00:05:55.153Z,101313.04
2023-05-15T00:08:22.154Z,101310.11
2023-05-15T00:11:00.959Z,101310.63
2023-05-15T00:13:29.007Z,101310.13
2023-05-15T00:15:55.920Z,101310.11
2023-05-15T00:18:22.875Z,101308.55
2023-05-15T00:20:49.819Z,101307.36
2023-05-15T00:23:16.672Z,101304.94
2023-05-15T00:25:43.607Z,101303.05
2023-05-15T00:28:10.557Z,101297.38
2023-05-15T00:30:37.510Z,101298.23
2023-05-15T00:33:04.379Z,101298.75
2023-05-15T00:35:32.411Z,101300.64
2023-05-15T00:37:59.306Z,101300.30
2023-05-15T00:40:26.304Z,101294.77
2023-05-15T00:42:53.368Z,101290.14
2023-05-15T00:45:20.708Z,101286.67
2023-05-15T00:47:47.811Z,101282.02
2023-05-15T00:50:14.902Z,101280.32
2023-05-15T00:52:41.857Z,101280.30
2023-05-15T00:55:09.241Z,101279.62
2023-05-15T00:57:36.246Z,101276.69
2023-05-15T01:00:10.382Z,101272.91
2023-05-15T01:02:37.924Z,101272.73
2023-05-15T01:05:07.654Z,101268.77
2023-05-15T01:07:37.440Z,101262.58
2023-05-15T01:10:05.006Z,101253.80
2023-05-15T01:12:32.352Z,101247.41
2023-05-15T01:14:59.227Z,101246.21
2023-05-15T01:17:27.610Z,101245.52
2023-05-15T01:19:54.836Z,101242.92
2023-05-15T01:22:35.901Z,101240.54
2023-05-15T01:25:11.965Z,101240.02
2023-05-15T01:27:55.299Z,101240.70
2023-05-15T01:30:34.461Z,101242.42
2023-05-15T01:33:06.234Z,101242.26
2023-05-15T01:35:44.278Z,101240.34
2023-05-15T01:38:11.325Z,101239.65
2023-05-15T01:40:38.273Z,101237.91
2023-05-15T01:43:10.090Z,101236.18
2023-05-15T01:45:37.481Z,101236.17
2023-05-15T01:48:07.450Z,101232.21
2023-05-15T01:50:35.182Z,101231.17
2023-05-15T01:53:02.305Z,101226.37
2023-05-15T01:55:29.659Z,101224.81
2023-05-15T01:57:58.037Z,101226.71
2023-05-15T02:00:24.982Z,101228.42
2023-05-15T02:02:52.130Z,101235.47
2023-05-15T02:05:19.280Z,101234.24
2023-05-15T02:07:47.276Z,101230.06
2023-05-15T02:10:15.326Z,101227.30
2023-05-15T02:12:46.972Z,101222.83
2023-05-15T02:15:13.918Z,101225.75
2023-05-15T02:17:40.875Z,101220.59
2023-05-15T02:20:08.724Z,101217.14
2023-05-15T02:22:38.132Z,101217.48
2023-05-15T02:25:06.228Z,101219.05
2023-05-15T02:27:48.204Z,101216.48
2023-05-15T02:30:30.805Z,101216.86
2023-05-15T02:33:17.010Z,101213.80
2023-05-15T02:35:49.581Z,101213.30
2023-05-15T02:38:17.280Z,101210.90
2023-05-15T02:40:45.314Z,101210.38
2023-05-15T02:43:12.359Z,101208.67
2023-05-15T02:45:39.981Z,101204.53
2023-05-15T02:48:07.293Z,101204.37
2023-05-15T02:50:34.413Z,101208.67
2023-05-15T02:53:02.633Z,101210.22
2023-05-15T02:55:29.947Z,101208.14
2023-05-15T02:57:57.708Z,101206.25
2023-05-15T03:00:24.622Z,101203.66
2023-05-15T03:02:51.827Z,101205.05
2023-05-15T03:05:18.851Z,101204.36
2023-05-15T03:07:45.897Z,101199.01
2023-05-15T03:10:12.842Z,101203.65
2023-05-15T03:12:39.890Z,101202.95
2023-05-15T03:15:07.755Z,101204.50
2023-05-15T03:17:34.720Z,101207.58
2023-05-15T03:20:01.648Z,101207.90
2023-05-15T03:22:28.539Z,101206.16
2023-05-15T03:24:55.526Z,101202.31
2023-05-15T03:27:22.395Z,101205.03
2023-05-15T03:29:51.157Z,101208.95
2023-05-15T03:32:18.359Z,101207.53
2023-05-15T03:34:45.351Z,101205.91
2023-05-15T03:37:12.311Z,101207.06
2023-05-15T03:39:39.344Z,101204.55
2023-05-15T03:42:07.109Z,101204.10
2023-05-15T03:44:34.261Z,101202.58
2023-05-15T03:47:01.294Z,101200.51
2023-05-15T03:49:28.307Z,101204.27
2023-05-15T03:51:56.435Z,101203.40
2023-05-15T03:54:23.575Z,101201.74
2023-05-15T03:56:51.741Z,101198.95
2023-05-15T03:59:19.011Z,101199.52
2023-05-15T04:02:02.771Z,101206.60
2023-05-15T04:04:31.017Z,101209.98
2023-05-15T04:06:57.955Z,101214.42
2023-05-15T04:09:24.819Z,101226.70
2023-05-15T04:11:52.112Z,101242.28
2023-05-15T04:14:19.096Z,101262.02
2023-05-15T04:16:45.986Z,101291.70
2023-05-15T04:19:13.091Z,101333.20
2023-05-15T04:21:40.744Z,101395.55
2023-05-15T04:24:07.996Z,101490.75
2023-05-15T04:26:35.071Z,101567.42
2023-05-15T04:29:04.545Z,101506.72
2023-05-15T04:31:32.321Z,101249.21
2023-05-15T04:33:59.458Z,100962.13
2023-05-15T04:36:26.401Z,100749.27
2023-05-15T04:38:53.385Z,100705.79
2023-05-15T04:41:21.023Z,100746.77
2023-05-15T04:43:47.958Z,100787.94
2023-05-15T04:46:15.716Z,100820.67
2023-05-15T04:48:42.670Z,100850.02
2023-05-15T04:51:09.620Z,100869.26
2023-05-15T04:53:36.964Z,100901.29
2023-05-15T04:56:04.110Z,100927.24
2023-05-15T04:58:31.474Z,100944.30
2023-05-15T05:00:58.411Z,100942.40
2023-05-15T05:03:25.592Z,100953.19
2023-05-15T05:05:52.603Z,100980.49
2023-05-15T05:08:19.467Z,100997.99
2023-05-15T05:10:46.340Z,101006.55
2023-05-15T05:13:13.338Z,101021.23
2023-05-15T05:15:40.260Z,101033.08
2023-05-15T05:18:07.284Z,101037.36
2023-05-15T05:20:34.378Z,101048.66
2023-05-15T05:23:01.319Z,101048.39
2023-05-15T05:25:28.275Z,101060.58
2023-05-15T05:27:55.103Z,101081.10
2023-05-15T05:30:22.594Z,101071.90
2023-05-15T05:32:49.794Z,101074.46
2023-05-15T05:35:16.863Z,101083.95
2023-05-15T05:37:43.780Z,101077.98
2023-05-15T05:40:11.376Z,101062.66
2023-05-15T05:42:38.250Z,101057.34
2023-05-15T05:45:07.089Z,101076.88
2023-05-15T05:47:34.256Z,101065.58
2023-05-15T05:50:01.179Z,101061.88
2023-05-15T05:52:29.566Z,101068.14
2023-05-15T05:54:56.515Z,101065.88
2023-05-15T05:57:23.503Z,101058.97
2023-05-15T05:59:50.497Z,101052.33
2023-05-15T06:02:17.575Z,101076.39
2023-05-15T06:04:44.701Z,101073.58
2023-05-15T06:07:12.455Z,101112.86
2023-05-15T06:09:39.416Z,101115.23
2023-05-15T06:12:08.473Z,101125.39
2023-05-15T06:14:36.175Z,101122.03
2023-05-15T06:17:03.785Z,101117.91
2023-05-15T06:19:30.761Z,101105.30
2023-05-15T06:21:58.127Z,101094.00
2023-05-15T06:24:25.065Z,101073.99
2023-05-15T06:28:06.453Z,101095.54
2023-05-15T06:30:33.544Z,101109.39
2023-05-15T06:33:01.171Z,101095.75
2023-05-15T06:35:28.310Z,101070.69
2023-05-15T06:37:56.499Z,101069.36
2023-05-15T06:40:26.445Z,101034.76
2023-05-15T06:42:53.651Z,101047.40
2023-05-15T06:45:20.747Z,101080.20
2023-05-15T06:47:47.602Z,101023.30
2023-05-15T06:50:14.696Z,101026.58
2023-05-15T06:52:41.732Z,100996.98
2023-05-15T06:55:08.987Z,101036.65
2023-05-15T06:57:35.928Z,101014.12
2023-05-15T07:00:02.874Z,100983.59
2023-05-15T07:02:30.102Z,100937.65
2023-05-15T07:04:57.224Z,100926.20
2023-05-15T07:07:24.221Z,100896.14
2023-05-15T07:09:51.176Z,100858.90
2023-05-15T07:12:18.105Z,100862.65
2023-05-15T07:14:45.052Z,100886.71
2023-05-15T07:17:12.368Z,100845.05
2023-05-15T07:19:39.435Z,100800.48
2023-05-15T07:22:06.409Z,100788.50
2023-05-15T07:24:33.340Z,100801.39
2023-05-15T07:27:00.401Z,100875.48
2023-05-15T07:29:27.328Z,100790.39
2023-05-15T07:31:54.357Z,100784.08
2023-05-15T07:34:21.429Z,100713.66
2023-05-15T07:36:48.472Z,100659.89
2023-05-15T07:39:16.176Z,100636.09
2023-05-15T07:41:43.184Z,100674.16
2023-05-15T07:44:10.841Z,100671.48
2023-05-15T07:46:39.111Z,100546.14
2023-05-15T07:49:06.372Z,100467.94
2023-05-15T07:51:33.240Z,100458.89
2023-05-15T07:54:00.153Z,100450.11
2023-05-15T07:56:27.207Z,100422.98
2023-05-15T07:58:54.326Z,100304.08
2023-05-15T08:01:21.956Z,99952.95
2023-05-15T08:03:48.919Z,99886.56
2023-05-15T08:06:16.508Z,100138.07
2023-05-15T08:08:44.071Z,100238.73
2023-05-15T08:11:11.022Z,100168.33
2023-05-15T08:13:38.163Z,100221.72
2023-05-15T08:16:06.053Z,100218.06
2023-05-15T08:18:33.048Z,100110.50
2023-05-15T08:21:00.221Z,100185.85
2023-05-15T08:23:27.180Z,100221.34
2023-05-15T08:25:54.012Z,99963.02
2023-05-15T08:28:20.954Z,99977.73
2023-05-15T08:30:47.898Z,99932.36
2023-05-15T08:33:15.299Z,99974.78
2023-05-15T08:35:42.387Z,100023.55
2023-05-15T08:38:09.349Z,99899.66
2023-05-15T08:40:39.765Z,100021.09
2023-05-15T08:43:14.050Z,99749.23
2023-05-15T08:45:41.750Z,99636.04
2023-05-15T08:48:14.465Z,99522.62
2023-05-15T08:50:41.791Z,99559.93
2023-05-15T08:53:08.791Z,99622.98
2023-05-15T08:55:35.775Z,99540.52
2023-05-15T08:58:02.721Z,99497.14
2023-05-15T09:00:30.378Z,99491.79
2023-05-15T09:03:02.525Z,99083.99
2023-05-15T09:05:29.803Z,98872.38
2023-05-15T09:07:57.356Z,98800.27
2023-05-15T09:10:24.306Z,98619.27
2023-05-15T09:12:51.766Z,98541.46
2023-05-15T09:15:22.233Z,98646.14
2023-05-15T09:17:50.245Z,98600.81
2023-05-15T09:20:31.644Z,98492.13
2023-05-15T09:22:59.668Z,98512.15
2023-05-15T09:25:40.658Z,98504.45
2023-05-15T09:28:09.778Z,98758.77
2023-05-15T09:30:42.094Z,98909.70
2023-05-15T09:33:09.490Z,98858.30
2023-05-15T09:35:37.824Z,98768.96
2023-05-15T09:38:11.590Z,98730.64
2023-05-15T09:40:38.958Z,98847.31
2023-05-15T09:43:06.107Z,98864.11
2023-05-15T09:45:33.185Z,98967.61
2023-05-15T09:48:01.193Z,98908.98
2023-05-15T09:50:36.567Z,98693.23
2023-05-15T09:53:03.899Z,98607.96
2023-05-15T09:55:34.737Z,98722.86
2023-05-15T09:58:08.844Z,98559.34
2023-05-15T10:00:35.894Z,98554.42
2023-05-15T10:03:03.946Z,98645.35
2023-05-15T10:05:42.598Z,98596.75
2023-05-15T10:08:11.060Z,98584.59
2023-05-15T10:10:38.238Z,98530.88
2023-05-15T10:13:06.233Z,98508.54
2023-05-15T10:15:33.444Z,98425.73
2023-05-15T10:18:01.239Z,98383.07
2023-05-15T10:20:28.443Z,98454.76
2023-05-15T10:22:56.625Z,98666.70
2023-05-15T10:25:31.753Z,98663.71
2023-05-15T10:27:59.108Z,98523.56
2023-05-15T10:30:26.361Z,98468.36
2023-05-15T10:32:53.895Z,98426.30
2023-05-15T10:35:21.070Z,98335.93
2023-05-15T10:37:49.250Z,98360.19
2023-05-15T10:40:17.514Z,98253.04
2023-05-15T10:42:45.964Z,98235.05
2023-05-15T10:45:13.156Z,98206.60
2023-05-15T10:47:41.098Z,98086.46
2023-05-15T10:50:09.182Z,98136.09
2023-05-15T10:52:36.557Z,98084.45
2023-05-15T10:55:06.967Z,97985.77
2023-05-15T10:57:33.874Z,97990.55
2023-05-15T11:00:02.281Z,98010.91
2023-05-15T11:02:33.560Z,98077.60
2023-05-15T11:05:01.398Z,97971.52
2023-05-15T11:07:28.554Z,97857.56
2023-05-15T11:09:56.204Z,97880.39
2023-05-15T11:12:23.354Z,97872.22
2023-05-15T11:14:56.334Z,97822.46
2023-05-15T11:17:23.607Z,97720.35
2023-05-15T11:19:51.050Z,97807.48
2023-05-15T11:22:20.412Z,97895.23
2023-05-15T11:25:09.235Z,97759.23
2023-05-15T11:27:43.718Z,97677.16
2023-05-15T11:30:10.868Z,97625.05
2023-05-15T11:32:47.533Z,97660.10
2023-05-15T11:35:18.625Z,97532.70
2023-05-15T11:37:57.058Z,97510.64
2023-05-15T11:40:25.111Z,97527.38
2023-05-15T11:43:22.833Z,97469.27
2023-05-15T11:45:56.304Z,97416.59
2023-05-15T11:48:24.820Z,97340.77
2023-05-15T11:50:55.206Z,97302.97
2023-05-15T11:53:23.405Z,97274.37
2023-05-15T11:55:52.301Z,97259.73
2023-05-15T11:58:20.065Z,97321.81
2023-05-15T12:00:48.037Z,97164.23
2023-05-15T12:03:36.555Z,97197.13
2023-05-15T12:06:04.248Z,96927.95
2023-05-15T12:08:35.705Z,97041.44
2023-05-15T12:11:03.052Z,97190.47
2023-05-15T12:13:31.569Z,97115.35
2023-05-15T12:15:59.005Z,97221.15
2023-05-15T12:18:26.356Z,97358.56
2023-05-15T12:20:54.209Z,97392.30
2023-05-15T12:23:23.564Z,97367.86
2023-05-15T12:25:52.945Z,97395.58
2023-05-15T12:28:19.858Z,97488.34
2023-05-15T12:30:46.903Z,97494.00
2023-05-15T12:33:13.882Z,97505.62
2023-05-15T12:35:54.328Z,97422.42
2023-05-15T12:38:22.579Z,97421.48
2023-05-15T12:40:53.581Z,97367.09
2023-05-15T12:43:21.492Z,97408.41
2023-05-15T12:45:48.464Z,97423.72
2023-05-15T12:48:15.686Z,97386.59
2023-05-15T12:50:44.695Z,97424.34
2023-05-15T12:53:13.627Z,97372.25
2023-05-15T12:55:40.819Z,97377.48
2023-05-15T12:58:09.449Z,97406.70
2023-05-15T13:00:38.050Z,97435.76
2023-05-15T13:03:05.340Z,97426.88
2023-05-15T13:05:32.583Z,97385.90
2023-05-15T13:07:59.991Z,97413.96
2023-05-15T13:10:27.310Z,97482.77
2023-05-15T13:12:55.050Z,97454.38
2023-05-15T13:15:38.044Z,97356.02
2023-05-15T13:18:07.677Z,97372.42
2023-05-15T13:20:38.921Z,97444.13
2023-05-15T13:23:06.206Z,97420.89
2023-05-15T13:25:33.360Z,97314.48
2023-05-15T13:28:01.504Z,97314.65
2023-05-15T13:30:28.745Z,97368.44
2023-05-15T13:32:56.162Z,97413.45
2023-05-15T13:35:23.354Z,97398.61
2023-05-15T13:37:50.606Z,97380.88
2023-05-15T13:40:17.655Z,97361.55
2023-05-15T13:42:44.695Z,97382.41
2023-05-15T13:45:12.871Z,97387.33
2023-05-15T13:47:39.958Z,97367.34
2023-05-15T13:50:11.925Z,97312.55
2023-05-15T13:52:39.338Z,97255.30
2023-05-15T13:55:07.213Z,97270.98
2023-05-15T13:57:34.146Z,97310.73
2023-05-15T14:00:01.209Z,97321.48
2023-05-15T14:02:28.914Z,97280.21
2023-05-15T14:04:56.105Z,97215.44
2023-05-15T14:07:23.352Z,97198.65
2023-05-15T14:09:51.119Z,97145.78
2023-05-15T14:12:18.370Z,97151.64
2023-05-15T14:14:45.935Z,97144.55
2023-05-15T14:17:14.123Z,97174.35
2023-05-15T14:19:41.481Z,97190.88
2023-05-15T14:22:08.610Z,97141.77
2023-05-15T14:24:35.486Z,97096.52
2023-05-15T14:27:02.494Z,97116.11
2023-05-15T14:29:29.745Z,97120.52
2023-05-15T14:31:56.725Z,97190.98
2023-05-15T14:34:23.745Z,97159.34
2023-05-15T14:36:51.105Z,97211.17
2023-05-15T14:39:18.341Z,97254.14
2023-05-15T14:41:45.799Z,97243.15
2023-05-15T14:44:12.767Z,97222.77
2023-05-15T14:46:42.371Z,97157.48
2023-05-15T14:49:09.405Z,97156.70
2023-05-15T14:51:36.333Z,97261.44
2023-05-15T14:54:05.222Z,97458.77
2023-05-15T14:56:32.487Z,97546.33
2023-05-15T14:58:59.932Z,97509.20
2023-05-15T15:01:27.290Z,97479.49
2023-05-15T15:03:54.930Z,97538.78
2023-05-15T15:06:22.096Z,97559.70
2023-05-15T15:08:50.889Z,97547.58
2023-05-15T15:11:17.828Z,97617.61
2023-05-15T15:13:44.878Z,97671.86
2023-05-15T15:16:11.848Z,97695.06
2023-05-15T15:18:39.095Z,97725.41
2023-05-15T15:21:05.989Z,97734.77
2023-05-15T15:23:32.854Z,97815.52
2023-05-15T15:26:00.002Z,97920.47
2023-05-15T15:28:29.402Z,97975.46
2023-05-15T15:30:56.349Z,97995.59
2023-05-15T15:33:23.296Z,98046.05
2023-05-15T15:35:50.126Z,98113.66
2023-05-15T15:38:17.076Z,98181.28
2023-05-15T15:40:44.227Z,98249.45
2023-05-15T15:43:11.375Z,98273.91
2023-05-15T15:45:38.439Z,98313.88
2023-05-15T15:48:05.645Z,98376.23
2023-05-15T15:50:32.820Z,98530.32
2023-05-15T15:53:00.174Z,98606.52
2023-05-15T15:55:27.117Z,98656.95
2023-05-15T15:57:54.076Z,98650.21
2023-05-15T16:00:21.001Z,98707.89
2023-05-15T16:02:47.978Z,98815.70
2023-05-15T16:05:15.319Z,98706.71
2023-05-15T16:07:42.376Z,98601.27
2023-05-15T16:10:13.172Z,98581.38
2023-05-15T16:12:40.964Z,98703.52
2023-05-15T16:15:21.486Z,98805.46
2023-05-15T16:17:54.379Z,98924.56
2023-05-15T16:20:22.842Z,99018.05
2023-05-15T16:22:50.015Z,99081.83
2023-05-15T16:25:17.077Z,99136.01
2023-05-15T16:27:44.034Z,99129.59
2023-05-15T16:30:11.780Z,99154.23
2023-05-15T16:32:38.856Z,99230.84
2023-05-15T16:35:06.570Z,99304.92
2023-05-15T16:37:33.534Z,99362.66
2023-05-15T16:40:01.039Z,99407.63
2023-05-15T16:42:28.654Z,99507.50
2023-05-15T16:44:55.906Z,99585.52
2023-05-15T16:47:22.975Z,99681.12
2023-05-15T16:49:50.580Z,99745.60
2023-05-15T16:52:17.771Z,99798.27
2023-05-15T16:54:44.704Z,99863.33
2023-05-15T16:57:11.550Z,99929.52
2023-05-15T16:59:38.490Z,100018.28
2023-05-15T17:02:05.466Z,100087.23
2023-05-15T17:04:35.378Z,100161.05
2023-05-15T17:07:03.111Z,100199.50
2023-05-15T17:09:30.056Z,100262.73
2023-05-15T17:11:57.096Z,100337.17
2023-05-15T17:14:24.043Z,100429.98
2023-05-15T17:16:51.094Z,100497.14
2023-05-15T17:19:18.188Z,100568.49
2023-05-15T17:21:46.432Z,100688.33
2023-05-15T17:24:16.027Z,100817.08
2023-05-15T17:26:43.580Z,100932.64
2023-05-15T17:29:11.134Z,100992.70
2023-05-15T17:31:38.997Z,101030.41
2023-05-15T17:34:06.050Z,101059.06
2023-05-15T17:36:36.592Z,101057.95
2023-05-15T17:39:04.055Z,101085.20
2023-05-15T17:41:31.284Z,101136.52
2023-05-15T17:43:58.227Z,101219.31
2023-05-15T17:46:25.332Z,101305.38
2023-05-15T17:48:53.651Z,101396.67
2023-05-15T17:51:20.594Z,101479.04
2023-05-15T17:53:48.468Z,101524.38
2023-05-15T17:56:15.405Z,101514.30
2023-05-15T17:58:42.250Z,101421.84
2023-05-15T18:01:09.217Z,101253.68
2023-05-15T18:03:36.197Z,101058.39
2023-05-15T18:06:03.391Z,100897.89
2023-05-15T18:08:30.433Z,100830.46
2023-05-15T18:10:57.480Z,100795.62
2023-05-15T18:13:24.649Z,100776.19
2023-05-15T18:15:51.921Z,100747.25
2023-05-15T18:18:19.031Z,100722.84
2023-05-15T18:20:46.076Z,100707.32
2023-05-15T18:23:13.022Z,100685.70
2023-05-15T18:25:40.165Z,100674.14
2023-05-15T18:28:07.426Z,100654.80
2023-05-15T18:30:34.922Z,100629.63
2023-05-15T18:33:01.856Z,100602.20
2023-05-15T18:35:29.009Z,100579.64
2023-05-15T18:37:56.014Z,100568.02
2023-05-15T18:40:24.809Z,100554.63
2023-05-15T18:42:51.857Z,100550.85
2023-05-15T18:46:28.586Z,100525.44
2023-05-15T18:48:56.192Z,100542.52
2023-05-15T18:51:23.856Z,100539.10
2023-05-15T18:53:50.905Z,100539.05
2023-05-15T18:56:17.944Z,100542.79
2023-05-15T18:58:47.502Z,100541.61
2023-05-15T19:01:14.528Z,100541.13
2023-05-15T19:03:41.461Z,100539.22
2023-05-15T19:06:08.486Z,100533.15
2023-05-15T19:08:35.431Z,100537.84
2023-05-15T19:11:02.393Z,100533.52
2023-05-15T19:13:32.802Z,100533.06
2023-05-15T19:15:59.960Z,100532.66
2023-05-15T19:18:26.897Z,100536.25
2023-05-15T19:20:54.554Z,100542.91
2023-05-15T19:23:21.519Z,100554.17
2023-05-15T19:25:48.442Z,100573.12
2023-05-15T19:28:15.613Z,100613.80
2023-05-15T19:30:42.754Z,100652.22
2023-05-15T19:33:09.671Z,100681.42
2023-05-15T19:35:37.632Z,100709.40
2023-05-15T19:38:05.019Z,100757.98
2023-05-15T19:40:32.073Z,100781.37
2023-05-15T19:42:59.005Z,100792.69
2023-05-15T19:45:25.891Z,100825.05
2023-05-15T19:47:53.177Z,100859.13
2023-05-15T19:50:20.538Z,100919.02
2023-05-15T19:52:47.698Z,100961.40
2023-05-15T19:55:14.639Z,100885.81
2023-05-15T19:57:44.947Z,100772.95
2023-05-15T20:00:13.079Z,100651.23
2023-05-15T20:02:41.559Z,100594.88
2023-05-15T20:05:09.568Z,100570.06
2023-05-15T20:07:37.039Z,100571.23
2023-05-15T20:10:04.895Z,100580.43
2023-05-15T20:12:31.840Z,100587.27
2023-05-15T20:14:58.948Z,100582.61
2023-05-15T20:17:25.895Z,100590.00
2023-05-15T20:19:53.230Z,100598.88
2023-05-15T20:22:20.237Z,100618.15
2023-05-15T20:24:48.334Z,100628.92
2023-05-15T20:27:15.177Z,100609.30
2023-05-15T20:29:42.715Z,100624.70
2023-05-15T20:32:09.697Z,100666.88
2023-05-15T20:34:37.024Z,100767.86
2023-05-15T20:37:03.969Z,100855.85
2023-05-15T20:39:31.300Z,100886.89
2023-05-15T20:41:58.656Z,100902.90
2023-05-15T20:44:26.016Z,100873.70
2023-05-15T20:46:53.060Z,100868.10
2023-05-15T20:49:20.002Z,100865.94
2023-05-15T20:51:48.989Z,100832.29
2023-05-15T20:54:16.348Z,100833.01
2023-05-15T20:56:44.423Z,100838.84
2023-05-15T20:59:11.363Z,100850.29
2023-05-15T21:01:38.322Z,100868.77
2023-05-15T21:04:07.081Z,100883.27
2023-05-15T21:06:34.657Z,100910.30
2023-05-15T21:09:01.699Z,100927.34
2023-05-15T21:11:28.966Z,100947.39
2023-05-15T21:13:55.998Z,100963.60
2023-05-15T21:16:23.064Z,101013.55
2023-05-15T21:18:50.348Z,101047.36
2023-05-15T21:21:17.445Z,101048.95
2023-05-15T21:23:44.492Z,101030.81
2023-05-15T21:26:11.543Z,101021.01
2023-05-15T21:28:38.686Z,100999.49
2023-05-15T21:31:07.450Z,100996.98
2023-05-15T21:33:35.811Z,100992.95
2023-05-15T21:36:06.286Z,101000.48
2023-05-15T21:38:33.361Z,100993.24
2023-05-15T21:41:01.201Z,100974.65
2023-05-15T21:43:28.143Z,100960.45
2023-05-15T21:45:56.151Z,100960.80
2023-05-15T21:48:23.357Z,100951.98
2023-05-15T21:50:50.929Z,100955.61
2023-05-15T21:53:17.859Z,100954.00
2023-05-15T21:55:44.717Z,100950.94
2023-05-15T21:58:11.700Z,100948.80
2023-05-15T22:00:40.025Z,100947.21
2023-05-15T22:03:07.043Z,100936.71
2023-05-15T22:05:34.533Z,100921.17
2023-05-15T22:08:01.670Z,100898.70
2023-05-15T22:10:28.716Z,100869.61
2023-05-15T22:12:55.858Z,100849.86
2023-05-15T22:15:22.911Z,100843.19
2023-05-15T22:17:50.534Z,100845.19
2023-05-15T22:20:18.902Z,100843.18
2023-05-15T22:22:45.937Z,100835.57
2023-05-15T22:25:12.947Z,100818.27
2023-05-15T22:27:41.010Z,100803.36
2023-05-15T22:30:08.984Z,100787.83
2023-05-15T22:32:36.160Z,100771.20
2023-05-15T22:35:03.825Z,100754.96
2023-05-15T22:37:31.045Z,100741.80
2023-05-15T22:39:57.983Z,100733.33
2023-05-15T22:42:24.836Z,100726.73
2023-05-15T22:44:51.742Z,100718.59
2023-05-15T22:47:18.669Z,100714.91
2023-05-15T22:49:45.759Z,100713.45
2023-05-15T22:52:13.783Z,100710.27
2023-05-15T22:54:41.183Z,100710.39
2023-05-15T22:57:08.979Z,100713.92
2023-05-15T22:59:36.610Z,100719.02
2023-05-15T23:02:04.106Z,100737.23
2023-05-15T23:04:31.115Z,100754.98
2023-05-15T23:06:58.158Z,100767.37
2023-05-15T23:09:25.104Z,100792.38
2023-05-15T23:11:52.136Z,100833.92
2023-05-15T23:14:19.138Z,100876.88
2023-05-15T23:16:46.550Z,100909.28
2023-05-15T23:19:13.450Z,100933.23
2023-05-15T23:21:40.954Z,100957.38
2023-05-15T23:24:08.216Z,100986.34
2023-05-15T23:26:35.151Z,101008.72
2023-05-15T23:29:02.242Z,101013.85
2023-05-15T23:31:29.373Z,101025.17
2023-05-15T23:33:56.725Z,101034.27
2023-05-15T23:36:24.048Z,101050.91
2023-05-15T23:38:51.092Z,101062.38
2023-05-15T23:41:18.038Z,101073.32
2023-05-15T23:43:44.857Z,101086.33
2023-05-15T23:46:11.868Z,101103.66
2023-05-15T23:48:39.185Z,101127.20
2023-05-15T23:51:06.128Z,101139.35
2023-05-15T23:53:33.070Z,101150.63
2023-05-15T23:56:00.022Z,101177.80
2023-05-15T23:58:26.957Z,101206.66
